sensor_id;sensor_type;location;lat;lon;timestamp;P1;durP1;ratioP1;P2;durP2;ratioP2
64395;SDS011;50717;53.360;6.290;2023-04-24T00:01:17;14.27;;;8.80;;
64395;SDS011;50717;53.360;6.290;2023-04-24T00:03:44;12.45;;;8.50;;
64395;SDS011;50717;53.360;6.290;2023-04-24T00:06:10;11.43;;;8.82;;
64395;SDS011;50717;53.360;6.290;2023-04-24T00:08:35;13.63;;;9.15;;
64395;SDS011;50717;53.360;6.290;2023-04-24T00:11:01;13.68;;;9.07;;
64395;SDS011;50717;53.360;6.290;2023-04-24T00:13:27;12.85;;;8.57;;
64395;SDS011;50717;53.360;6.290;2023-04-24T00:15:53;12.98;;;9.07;;
64395;SDS011;50717;53.360;6.290;2023-04-24T00:18:20;14.57;;;9.10;;
64395;SDS011;50717;53.360;6.290;2023-04-24T00:20:45;12.73;;;8.50;;
64395;SDS011;50717;53.360;6.290;2023-04-24T00:23:11;11.95;;;8.77;;
64395;SDS011;50717;53.360;6.290;2023-04-24T00:28:03;10.80;;;8.48;;
64395;SDS011;50717;53.360;6.290;2023-04-24T00:30:29;10.45;;;8.65;;
64395;SDS011;50717;53.360;6.290;2023-04-24T00:32:55;11.93;;;9.13;;
64395;SDS011;50717;53.360;6.290;2023-04-24T00:35:21;12.77;;;9.15;;
64395;SDS011;50717;53.360;6.290;2023-04-24T00:37:46;12.40;;;9.20;;
64395;SDS011;50717;53.360;6.290;2023-04-24T00:40:12;13.70;;;9.13;;
64395;SDS011;50717;53.360;6.290;2023-04-24T00:42:38;12.73;;;9.05;;
64395;SDS011;50717;53.360;6.290;2023-04-24T00:45:05;12.57;;;8.48;;
64395;SDS011;50717;53.360;6.290;2023-04-24T00:47:32;10.57;;;9.13;;
64395;SDS011;50717;53.360;6.290;2023-04-24T00:50:00;13.63;;;9.40;;
64395;SDS011;50717;53.360;6.290;2023-04-24T00:52:28;13.63;;;9.45;;
64395;SDS011;50717;53.360;6.290;2023-04-24T00:54:56;12.23;;;10.13;;
64395;SDS011;50717;53.360;6.290;2023-04-24T00:57:21;12.57;;;9.60;;
64395;SDS011;50717;53.360;6.290;2023-04-24T00:59:48;13.18;;;9.98;;
64395;SDS011;50717;53.360;6.290;2023-04-24T01:02:14;12.02;;;10.25;;
64395;SDS011;50717;53.360;6.290;2023-04-24T01:04:40;12.57;;;10.00;;
64395;SDS011;50717;53.360;6.290;2023-04-24T01:07:06;11.65;;;8.93;;
64395;SDS011;50717;53.360;6.290;2023-04-24T01:09:36;10.90;;;9.18;;
64395;SDS011;50717;53.360;6.290;2023-04-24T01:12:04;12.15;;;9.55;;
64395;SDS011;50717;53.360;6.290;2023-04-24T01:16:56;9.38;;;7.53;;
64395;SDS011;50717;53.360;6.290;2023-04-24T01:19:22;9.13;;;7.47;;
64395;SDS011;50717;53.360;6.290;2023-04-24T01:21:48;12.90;;;7.90;;
64395;SDS011;50717;53.360;6.290;2023-04-24T01:24:19;10.88;;;8.23;;
64395;SDS011;50717;53.360;6.290;2023-04-24T01:26:45;10.57;;;8.48;;
64395;SDS011;50717;53.360;6.290;2023-04-24T01:29:11;10.73;;;7.82;;
64395;SDS011;50717;53.360;6.290;2023-04-24T01:31:38;8.65;;;7.75;;
64395;SDS011;50717;53.360;6.290;2023-04-24T01:34:04;8.60;;;7.70;;
64395;SDS011;50717;53.360;6.290;2023-04-24T01:38:57;8.83;;;6.17;;
64395;SDS011;50717;53.360;6.290;2023-04-24T01:41:23;8.13;;;7.15;;
64395;SDS011;50717;53.360;6.290;2023-04-24T01:43:50;8.57;;;6.90;;
64395;SDS011;50717;53.360;6.290;2023-04-24T01:46:16;10.43;;;6.70;;
64395;SDS011;50717;53.360;6.290;2023-04-24T01:48:42;7.40;;;6.63;;
64395;SDS011;50717;53.360;6.290;2023-04-24T01:51:07;8.48;;;6.80;;
64395;SDS011;50717;53.360;6.290;2023-04-24T01:53:33;8.85;;;6.18;;
64395;SDS011;50717;53.360;6.290;2023-04-24T01:55:59;8.30;;;6.65;;
64395;SDS011;50717;53.360;6.290;2023-04-24T01:58:26;7.78;;;6.32;;
64395;SDS011;50717;53.360;6.290;2023-04-24T02:00:52;7.68;;;6.50;;
64395;SDS011;50717;53.360;6.290;2023-04-24T02:03:18;7.40;;;6.43;;
64395;SDS011;50717;53.360;6.290;2023-04-24T02:05:44;7.10;;;6.30;;
64395;SDS011;50717;53.360;6.290;2023-04-24T02:08:10;8.38;;;5.95;;
64395;SDS011;50717;53.360;6.290;2023-04-24T02:10:35;9.30;;;6.82;;
64395;SDS011;50717;53.360;6.290;2023-04-24T02:13:01;8.93;;;5.72;;
64395;SDS011;50717;53.360;6.290;2023-04-24T02:15:27;10.55;;;6.07;;
64395;SDS011;50717;53.360;6.290;2023-04-24T02:17:53;7.05;;;5.38;;
64395;SDS011;50717;53.360;6.290;2023-04-24T02:20:18;7.13;;;5.85;;
64395;SDS011;50717;53.360;6.290;2023-04-24T02:22:44;7.57;;;6.00;;
64395;SDS011;50717;53.360;6.290;2023-04-24T02:25:10;7.53;;;5.78;;
64395;SDS011;50717;53.360;6.290;2023-04-24T02:27:35;9.75;;;5.85;;
64395;SDS011;50717;53.360;6.290;2023-04-24T02:30:01;7.72;;;5.55;;
64395;SDS011;50717;53.360;6.290;2023-04-24T02:32:28;6.10;;;5.50;;
64395;SDS011;50717;53.360;6.290;2023-04-24T02:34:53;7.45;;;6.05;;
64395;SDS011;50717;53.360;6.290;2023-04-24T02:37:19;6.63;;;5.95;;
64395;SDS011;50717;53.360;6.290;2023-04-24T02:39:45;8.00;;;6.40;;
64395;SDS011;50717;53.360;6.290;2023-04-24T02:42:10;7.57;;;6.10;;
64395;SDS011;50717;53.360;6.290;2023-04-24T02:44:36;8.05;;;5.72;;
64395;SDS011;50717;53.360;6.290;2023-04-24T02:47:02;8.07;;;6.30;;
64395;SDS011;50717;53.360;6.290;2023-04-24T02:49:28;7.38;;;6.10;;
64395;SDS011;50717;53.360;6.290;2023-04-24T02:51:54;7.40;;;6.55;;
64395;SDS011;50717;53.360;6.290;2023-04-24T02:54:19;7.35;;;6.45;;
64395;SDS011;50717;53.360;6.290;2023-04-24T02:56:45;8.95;;;6.75;;
64395;SDS011;50717;53.360;6.290;2023-04-24T02:59:11;8.80;;;6.85;;
64395;SDS011;50717;53.360;6.290;2023-04-24T03:01:36;9.80;;;7.65;;
64395;SDS011;50717;53.360;6.290;2023-04-24T03:04:02;11.15;;;7.63;;
64395;SDS011;50717;53.360;6.290;2023-04-24T03:06:28;9.95;;;8.20;;
64395;SDS011;50717;53.360;6.290;2023-04-24T03:08:56;10.38;;;8.15;;
64395;SDS011;50717;53.360;6.290;2023-04-24T03:11:22;10.35;;;8.15;;
64395;SDS011;50717;53.360;6.290;2023-04-24T03:13:47;12.93;;;9.60;;
64395;SDS011;50717;53.360;6.290;2023-04-24T03:16:13;11.10;;;9.27;;
64395;SDS011;50717;53.360;6.290;2023-04-24T03:18:39;14.18;;;10.00;;
64395;SDS011;50717;53.360;6.290;2023-04-24T03:21:04;12.93;;;9.60;;
64395;SDS011;50717;53.360;6.290;2023-04-24T03:23:30;12.13;;;10.07;;
64395;SDS011;50717;53.360;6.290;2023-04-24T03:25:56;13.68;;;10.00;;
64395;SDS011;50717;53.360;6.290;2023-04-24T03:28:21;17.63;;;11.00;;
64395;SDS011;50717;53.360;6.290;2023-04-24T03:30:47;13.32;;;10.48;;
64395;SDS011;50717;53.360;6.290;2023-04-24T03:33:13;14.48;;;10.93;;
64395;SDS011;50717;53.360;6.290;2023-04-24T03:35:38;13.30;;;11.07;;
64395;SDS011;50717;53.360;6.290;2023-04-24T03:38:04;16.85;;;10.70;;
64395;SDS011;50717;53.360;6.290;2023-04-24T03:40:30;17.60;;;11.55;;
64395;SDS011;50717;53.360;6.290;2023-04-24T03:42:58;14.52;;;11.25;;
64395;SDS011;50717;53.360;6.290;2023-04-24T03:45:24;14.40;;;11.50;;
64395;SDS011;50717;53.360;6.290;2023-04-24T03:47:49;18.48;;;11.70;;
64395;SDS011;50717;53.360;6.290;2023-04-24T03:50:15;22.40;;;11.57;;
64395;SDS011;50717;53.360;6.290;2023-04-24T03:52:41;21.38;;;11.52;;
64395;SDS011;50717;53.360;6.290;2023-04-24T03:55:06;23.08;;;13.10;;
64395;SDS011;50717;53.360;6.290;2023-04-24T03:57:32;24.48;;;12.60;;
64395;SDS011;50717;53.360;6.290;2023-04-24T03:59:58;27.48;;;12.27;;
64395;SDS011;50717;53.360;6.290;2023-04-24T04:02:24;18.70;;;9.82;;
64395;SDS011;50717;53.360;6.290;2023-04-24T04:04:49;17.65;;;9.30;;
64395;SDS011;50717;53.360;6.290;2023-04-24T04:07:15;14.25;;;8.63;;
64395;SDS011;50717;53.360;6.290;2023-04-24T04:09:41;14.35;;;8.40;;
64395;SDS011;50717;53.360;6.290;2023-04-24T04:12:07;12.65;;;6.88;;
64395;SDS011;50717;53.360;6.290;2023-04-24T04:14:32;14.40;;;8.00;;
64395;SDS011;50717;53.360;6.290;2023-04-24T04:16:58;11.50;;;6.60;;
64395;SDS011;50717;53.360;6.290;2023-04-24T04:19:23;14.57;;;8.18;;
64395;SDS011;50717;53.360;6.290;2023-04-24T04:21:49;12.93;;;7.63;;
64395;SDS011;50717;53.360;6.290;2023-04-24T04:24:21;11.05;;;6.78;;
64395;SDS011;50717;53.360;6.290;2023-04-24T04:26:47;12.55;;;7.00;;
64395;SDS011;50717;53.360;6.290;2023-04-24T04:29:16;12.70;;;6.82;;
64395;SDS011;50717;53.360;6.290;2023-04-24T04:31:43;11.15;;;7.32;;
64395;SDS011;50717;53.360;6.290;2023-04-24T04:36:36;8.43;;;5.43;;
64395;SDS011;50717;53.360;6.290;2023-04-24T04:39:05;8.90;;;5.15;;
64395;SDS011;50717;53.360;6.290;2023-04-24T04:41:31;9.38;;;5.53;;
64395;SDS011;50717;53.360;6.290;2023-04-24T04:44:00;7.43;;;4.78;;
64395;SDS011;50717;53.360;6.290;2023-04-24T04:46:26;8.50;;;6.13;;
64395;SDS011;50717;53.360;6.290;2023-04-24T04:48:52;13.30;;;8.35;;
64395;SDS011;50717;53.360;6.290;2023-04-24T04:51:18;13.80;;;9.93;;
64395;SDS011;50717;53.360;6.290;2023-04-24T04:53:44;16.02;;;8.57;;
64395;SDS011;50717;53.360;6.290;2023-04-24T04:56:09;8.45;;;4.80;;
64395;SDS011;50717;53.360;6.290;2023-04-24T04:58:35;7.05;;;4.72;;
64395;SDS011;50717;53.360;6.290;2023-04-24T05:01:01;11.23;;;5.45;;
64395;SDS011;50717;53.360;6.290;2023-04-24T05:03:27;6.85;;;4.22;;
64395;SDS011;50717;53.360;6.290;2023-04-24T05:05:53;8.05;;;4.78;;
64395;SDS011;50717;53.360;6.290;2023-04-24T05:08:18;13.15;;;6.47;;
64395;SDS011;50717;53.360;6.290;2023-04-24T05:10:44;9.30;;;6.60;;
64395;SDS011;50717;53.360;6.290;2023-04-24T05:13:10;12.40;;;7.35;;
64395;SDS011;50717;53.360;6.290;2023-04-24T05:15:36;12.75;;;6.78;;
64395;SDS011;50717;53.360;6.290;2023-04-24T05:18:02;9.70;;;6.15;;
64395;SDS011;50717;53.360;6.290;2023-04-24T05:20:28;9.32;;;6.15;;
64395;SDS011;50717;53.360;6.290;2023-04-24T05:22:53;11.55;;;5.20;;
64395;SDS011;50717;53.360;6.290;2023-04-24T05:25:19;8.15;;;4.30;;
64395;SDS011;50717;53.360;6.290;2023-04-24T05:27:45;7.60;;;4.20;;
64395;SDS011;50717;53.360;6.290;2023-04-24T05:32:37;8.68;;;3.83;;
64395;SDS011;50717;53.360;6.290;2023-04-24T05:35:03;11.85;;;4.25;;
64395;SDS011;50717;53.360;6.290;2023-04-24T05:37:29;8.10;;;5.07;;
64395;SDS011;50717;53.360;6.290;2023-04-24T05:39:54;12.10;;;6.15;;
64395;SDS011;50717;53.360;6.290;2023-04-24T05:42:20;14.18;;;6.03;;
64395;SDS011;50717;53.360;6.290;2023-04-24T05:44:46;10.02;;;5.82;;
64395;SDS011;50717;53.360;6.290;2023-04-24T05:47:11;10.68;;;5.65;;
64395;SDS011;50717;53.360;6.290;2023-04-24T05:49:37;8.98;;;4.90;;
64395;SDS011;50717;53.360;6.290;2023-04-24T05:52:03;6.93;;;5.72;;
64395;SDS011;50717;53.360;6.290;2023-04-24T05:54:30;14.85;;;6.32;;
64395;SDS011;50717;53.360;6.290;2023-04-24T05:56:56;14.63;;;5.65;;
64395;SDS011;50717;53.360;6.290;2023-04-24T05:59:21;8.55;;;6.15;;
64395;SDS011;50717;53.360;6.290;2023-04-24T06:01:47;8.32;;;5.45;;
64395;SDS011;50717;53.360;6.290;2023-04-24T06:04:13;10.70;;;5.57;;
64395;SDS011;50717;53.360;6.290;2023-04-24T06:09:05;8.63;;;5.07;;
64395;SDS011;50717;53.360;6.290;2023-04-24T06:11:31;9.00;;;4.97;;
64395;SDS011;50717;53.360;6.290;2023-04-24T06:13:57;14.60;;;4.65;;
64395;SDS011;50717;53.360;6.290;2023-04-24T06:16:23;6.38;;;3.72;;
64395;SDS011;50717;53.360;6.290;2023-04-24T06:18:49;6.38;;;3.50;;
64395;SDS011;50717;53.360;6.290;2023-04-24T06:21:15;3.92;;;2.97;;
64395;SDS011;50717;53.360;6.290;2023-04-24T06:23:41;6.40;;;2.80;;
64395;SDS011;50717;53.360;6.290;2023-04-24T06:26:07;7.60;;;3.22;;
64395;SDS011;50717;53.360;6.290;2023-04-24T06:28:32;6.75;;;2.78;;
64395;SDS011;50717;53.360;6.290;2023-04-24T06:30:58;7.53;;;3.65;;
64395;SDS011;50717;53.360;6.290;2023-04-24T06:33:24;7.63;;;3.25;;
64395;SDS011;50717;53.360;6.290;2023-04-24T06:35:49;5.35;;;3.20;;
64395;SDS011;50717;53.360;6.290;2023-04-24T06:38:15;4.72;;;3.28;;
64395;SDS011;50717;53.360;6.290;2023-04-24T06:40:41;10.27;;;3.17;;
64395;SDS011;50717;53.360;6.290;2023-04-24T06:43:07;6.32;;;2.50;;
64395;SDS011;50717;53.360;6.290;2023-04-24T06:45:32;6.45;;;2.20;;
64395;SDS011;50717;53.360;6.290;2023-04-24T06:47:58;11.02;;;3.17;;
64395;SDS011;50717;53.360;6.290;2023-04-24T06:50:24;5.45;;;2.90;;
64395;SDS011;50717;53.360;6.290;2023-04-24T06:52:50;5.00;;;3.47;;
64395;SDS011;50717;53.360;6.290;2023-04-24T06:55:16;10.88;;;3.88;;
64395;SDS011;50717;53.360;6.290;2023-04-24T07:02:46;8.73;;;2.83;;
64395;SDS011;50717;53.360;6.290;2023-04-24T07:05:12;8.75;;;2.63;;
64395;SDS011;50717;53.360;6.290;2023-04-24T07:07:40;3.10;;;2.22;;
64395;SDS011;50717;53.360;6.290;2023-04-24T07:10:06;7.22;;;2.47;;
64395;SDS011;50717;53.360;6.290;2023-04-24T07:12:33;9.93;;;2.63;;
64395;SDS011;50717;53.360;6.290;2023-04-24T07:15:00;7.95;;;3.63;;
64395;SDS011;50717;53.360;6.290;2023-04-24T07:17:25;8.68;;;4.13;;
64395;SDS011;50717;53.360;6.290;2023-04-24T07:19:51;10.52;;;5.03;;
64395;SDS011;50717;53.360;6.290;2023-04-24T07:22:17;21.13;;;6.07;;
64395;SDS011;50717;53.360;6.290;2023-04-24T07:24:45;15.65;;;7.43;;
64395;SDS011;50717;53.360;6.290;2023-04-24T07:27:11;16.98;;;9.63;;
64395;SDS011;50717;53.360;6.290;2023-04-24T07:29:37;18.15;;;10.50;;
64395;SDS011;50717;53.360;6.290;2023-04-24T07:32:03;22.17;;;10.70;;
64395;SDS011;50717;53.360;6.290;2023-04-24T07:34:29;24.30;;;13.35;;
64395;SDS011;50717;53.360;6.290;2023-04-24T07:36:54;26.75;;;14.27;;
64395;SDS011;50717;53.360;6.290;2023-04-24T07:39:20;37.30;;;15.65;;
64395;SDS011;50717;53.360;6.290;2023-04-24T07:41:46;35.40;;;16.15;;
64395;SDS011;50717;53.360;6.290;2023-04-24T07:44:11;31.58;;;15.75;;
64395;SDS011;50717;53.360;6.290;2023-04-24T07:46:37;25.02;;;15.57;;
64395;SDS011;50717;53.360;6.290;2023-04-24T07:49:03;35.63;;;17.70;;
64395;SDS011;50717;53.360;6.290;2023-04-24T07:53:56;28.73;;;14.50;;
64395;SDS011;50717;53.360;6.290;2023-04-24T07:56:21;27.05;;;15.30;;
64395;SDS011;50717;53.360;6.290;2023-04-24T07:58:47;38.95;;;15.57;;
64395;SDS011;50717;53.360;6.290;2023-04-24T08:01:13;32.38;;;15.20;;
64395;SDS011;50717;53.360;6.290;2023-04-24T08:03:38;29.95;;;14.60;;
64395;SDS011;50717;53.360;6.290;2023-04-24T08:06:04;27.85;;;14.00;;
64395;SDS011;50717;53.360;6.290;2023-04-24T08:08:30;22.85;;;14.18;;
64395;SDS011;50717;53.360;6.290;2023-04-24T08:10:56;24.48;;;14.02;;
64395;SDS011;50717;53.360;6.290;2023-04-24T08:13:21;25.27;;;10.93;;
64395;SDS011;50717;53.360;6.290;2023-04-24T08:15:47;22.63;;;12.45;;
64395;SDS011;50717;53.360;6.290;2023-04-24T08:18:13;23.42;;;12.32;;
64395;SDS011;50717;53.360;6.290;2023-04-24T08:20:40;29.48;;;14.57;;
64395;SDS011;50717;53.360;6.290;2023-04-24T08:23:06;22.20;;;11.63;;
64395;SDS011;50717;53.360;6.290;2023-04-24T08:25:32;21.50;;;12.18;;
64395;SDS011;50717;53.360;6.290;2023-04-24T08:28:00;30.67;;;11.82;;
64395;SDS011;50717;53.360;6.290;2023-04-24T08:30:27;16.88;;;10.35;;
64395;SDS011;50717;53.360;6.290;2023-04-24T08:32:53;21.23;;;12.70;;
64395;SDS011;50717;53.360;6.290;2023-04-24T08:35:19;23.50;;;11.52;;
64395;SDS011;50717;53.360;6.290;2023-04-24T08:37:45;20.48;;;12.68;;
64395;SDS011;50717;53.360;6.290;2023-04-24T08:40:14;21.38;;;12.60;;
64395;SDS011;50717;53.360;6.290;2023-04-24T08:42:44;20.88;;;12.68;;
64395;SDS011;50717;53.360;6.290;2023-04-24T08:45:10;21.48;;;10.07;;
64395;SDS011;50717;53.360;6.290;2023-04-24T08:47:40;24.33;;;10.75;;
64395;SDS011;50717;53.360;6.290;2023-04-24T08:50:07;14.20;;;7.53;;
64395;SDS011;50717;53.360;6.290;2023-04-24T08:52:34;15.50;;;7.70;;
64395;SDS011;50717;53.360;6.290;2023-04-24T08:55:01;13.02;;;7.80;;
64395;SDS011;50717;53.360;6.290;2023-04-24T08:57:27;12.70;;;6.95;;
64395;SDS011;50717;53.360;6.290;2023-04-24T09:02:20;11.73;;;6.60;;
64395;SDS011;50717;53.360;6.290;2023-04-24T09:04:47;13.65;;;6.95;;
64395;SDS011;50717;53.360;6.290;2023-04-24T09:07:14;12.60;;;7.03;;
64395;SDS011;50717;53.360;6.290;2023-04-24T09:09:41;14.60;;;6.65;;
64395;SDS011;50717;53.360;6.290;2023-04-24T09:12:07;17.75;;;6.88;;
64395;SDS011;50717;53.360;6.290;2023-04-24T09:14:35;14.40;;;7.93;;
64395;SDS011;50717;53.360;6.290;2023-04-24T09:17:04;18.90;;;7.13;;
64395;SDS011;50717;53.360;6.290;2023-04-24T09:19:31;14.13;;;5.70;;
64395;SDS011;50717;53.360;6.290;2023-04-24T09:21:57;15.32;;;6.25;;
64395;SDS011;50717;53.360;6.290;2023-04-24T09:24:22;15.45;;;6.03;;
64395;SDS011;50717;53.360;6.290;2023-04-24T09:26:49;16.15;;;5.30;;
64395;SDS011;50717;53.360;6.290;2023-04-24T09:29:26;13.98;;;5.10;;
64395;SDS011;50717;53.360;6.290;2023-04-24T09:31:52;11.45;;;4.70;;
64395;SDS011;50717;53.360;6.290;2023-04-24T09:34:22;10.52;;;4.85;;
64395;SDS011;50717;53.360;6.290;2023-04-24T09:36:49;15.18;;;4.63;;
64395;SDS011;50717;53.360;6.290;2023-04-24T09:39:15;14.50;;;4.70;;
64395;SDS011;50717;53.360;6.290;2023-04-24T09:41:48;13.98;;;4.47;;
64395;SDS011;50717;53.360;6.290;2023-04-24T09:44:19;12.93;;;4.95;;
64395;SDS011;50717;53.360;6.290;2023-04-24T09:46:50;15.05;;;4.40;;
64395;SDS011;50717;53.360;6.290;2023-04-24T09:49:23;10.27;;;4.13;;
64395;SDS011;50717;53.360;6.290;2023-04-24T09:52:03;8.10;;;4.05;;
64395;SDS011;50717;53.360;6.290;2023-04-24T09:54:29;10.05;;;4.40;;
64395;SDS011;50717;53.360;6.290;2023-04-24T09:56:55;7.13;;;3.35;;
64395;SDS011;50717;53.360;6.290;2023-04-24T09:59:21;7.22;;;3.20;;
64395;SDS011;50717;53.360;6.290;2023-04-24T10:01:47;9.02;;;3.78;;
64395;SDS011;50717;53.360;6.290;2023-04-24T10:04:24;7.53;;;2.80;;
64395;SDS011;50717;53.360;6.290;2023-04-24T10:06:52;13.57;;;4.03;;
64395;SDS011;50717;53.360;6.290;2023-04-24T10:09:21;14.07;;;3.45;;
64395;SDS011;50717;53.360;6.290;2023-04-24T10:11:50;12.80;;;3.00;;
64395;SDS011;50717;53.360;6.290;2023-04-24T10:14:20;8.80;;;3.28;;
64395;SDS011;50717;53.360;6.290;2023-04-24T10:16:47;14.55;;;3.35;;
64395;SDS011;50717;53.360;6.290;2023-04-24T10:19:14;7.15;;;2.78;;
64395;SDS011;50717;53.360;6.290;2023-04-24T10:21:41;9.35;;;3.30;;
64395;SDS011;50717;53.360;6.290;2023-04-24T10:24:14;8.65;;;2.83;;
64395;SDS011;50717;53.360;6.290;2023-04-24T10:26:42;7.60;;;3.22;;
64395;SDS011;50717;53.360;6.290;2023-04-24T10:29:09;8.88;;;3.05;;
64395;SDS011;50717;53.360;6.290;2023-04-24T10:31:37;9.13;;;3.10;;
64395;SDS011;50717;53.360;6.290;2023-04-24T10:34:07;11.20;;;3.30;;
64395;SDS011;50717;53.360;6.290;2023-04-24T10:36:34;12.35;;;3.22;;
64395;SDS011;50717;53.360;6.290;2023-04-24T10:39:03;9.07;;;3.30;;
64395;SDS011;50717;53.360;6.290;2023-04-24T10:41:33;18.08;;;3.20;;
64395;SDS011;50717;53.360;6.290;2023-04-24T10:44:06;12.20;;;3.70;;
64395;SDS011;50717;53.360;6.290;2023-04-24T10:46:39;11.82;;;3.55;;
64395;SDS011;50717;53.360;6.290;2023-04-24T10:49:09;11.45;;;3.20;;
64395;SDS011;50717;53.360;6.290;2023-04-24T10:51:51;10.85;;;3.10;;
64395;SDS011;50717;53.360;6.290;2023-04-24T10:56:50;9.07;;;2.72;;
64395;SDS011;50717;53.360;6.290;2023-04-24T10:59:26;22.05;;;3.38;;
64395;SDS011;50717;53.360;6.290;2023-04-24T11:01:59;10.02;;;2.40;;
64395;SDS011;50717;53.360;6.290;2023-04-24T11:04:29;8.40;;;2.40;;
64395;SDS011;50717;53.360;6.290;2023-04-24T11:06:56;8.95;;;2.70;;
64395;SDS011;50717;53.360;6.290;2023-04-24T11:09:22;10.18;;;2.50;;
64395;SDS011;50717;53.360;6.290;2023-04-24T11:11:53;12.00;;;2.67;;
64395;SDS011;50717;53.360;6.290;2023-04-24T11:20:04;12.88;;;2.40;;
64395;SDS011;50717;53.360;6.290;2023-04-24T11:22:35;5.53;;;2.10;;
64395;SDS011;50717;53.360;6.290;2023-04-24T11:25:02;12.23;;;2.20;;
64395;SDS011;50717;53.360;6.290;2023-04-24T11:27:47;10.00;;;2.30;;
64395;SDS011;50717;53.360;6.290;2023-04-24T11:30:16;11.90;;;2.67;;
64395;SDS011;50717;53.360;6.290;2023-04-24T11:32:46;9.80;;;2.30;;
64395;SDS011;50717;53.360;6.290;2023-04-24T11:35:18;7.82;;;2.10;;
64395;SDS011;50717;53.360;6.290;2023-04-24T11:37:49;9.25;;;2.20;;
64395;SDS011;50717;53.360;6.290;2023-04-24T11:40:17;5.55;;;1.92;;
64395;SDS011;50717;53.360;6.290;2023-04-24T11:42:51;7.57;;;2.13;;
64395;SDS011;50717;53.360;6.290;2023-04-24T11:45:18;7.05;;;1.63;;
64395;SDS011;50717;53.360;6.290;2023-04-24T11:47:48;9.77;;;1.85;;
64395;SDS011;50717;53.360;6.290;2023-04-24T11:50:15;7.93;;;1.90;;
64395;SDS011;50717;53.360;6.290;2023-04-24T11:52:44;4.22;;;1.30;;
64395;SDS011;50717;53.360;6.290;2023-04-24T11:57:39;10.00;;;1.65;;
64395;SDS011;50717;53.360;6.290;2023-04-24T12:00:15;4.45;;;1.63;;
64395;SDS011;50717;53.360;6.290;2023-04-24T12:02:45;7.33;;;2.40;;
64395;SDS011;50717;53.360;6.290;2023-04-24T12:07:51;4.90;;;1.98;;
64395;SDS011;50717;53.360;6.290;2023-04-24T12:10:23;6.63;;;1.80;;
64395;SDS011;50717;53.360;6.290;2023-04-24T12:12:51;13.50;;;2.33;;
64395;SDS011;50717;53.360;6.290;2023-04-24T12:15:17;8.25;;;1.60;;
64395;SDS011;50717;53.360;6.290;2023-04-24T12:17:45;10.68;;;2.22;;
64395;SDS011;50717;53.360;6.290;2023-04-24T12:25:12;7.10;;;1.75;;
64395;SDS011;50717;53.360;6.290;2023-04-24T12:27:38;6.35;;;1.63;;
64395;SDS011;50717;53.360;6.290;2023-04-24T12:30:05;9.07;;;1.60;;
64395;SDS011;50717;53.360;6.290;2023-04-24T12:32:34;7.10;;;1.70;;
64395;SDS011;50717;53.360;6.290;2023-04-24T12:35:00;6.35;;;1.63;;
64395;SDS011;50717;53.360;6.290;2023-04-24T12:37:26;5.97;;;1.50;;
64395;SDS011;50717;53.360;6.290;2023-04-24T12:42:42;6.78;;;1.60;;
64395;SDS011;50717;53.360;6.290;2023-04-24T12:45:12;6.03;;;1.65;;
64395;SDS011;50717;53.360;6.290;2023-04-24T12:47:39;8.93;;;1.80;;
64395;SDS011;50717;53.360;6.290;2023-04-24T12:50:10;5.75;;;1.77;;
64395;SDS011;50717;53.360;6.290;2023-04-24T12:52:38;4.80;;;1.30;;
64395;SDS011;50717;53.360;6.290;2023-04-24T12:57:33;8.82;;;1.88;;
64395;SDS011;50717;53.360;6.290;2023-04-24T13:00:00;10.05;;;1.75;;
64395;SDS011;50717;53.360;6.290;2023-04-24T13:04:52;6.68;;;1.52;;
64395;SDS011;50717;53.360;6.290;2023-04-24T13:07:19;7.00;;;1.55;;
64395;SDS011;50717;53.360;6.290;2023-04-24T13:09:44;6.00;;;1.88;;
64395;SDS011;50717;53.360;6.290;2023-04-24T13:12:11;5.13;;;1.42;;
64395;SDS011;50717;53.360;6.290;2023-04-24T13:14:37;7.35;;;1.50;;
64395;SDS011;50717;53.360;6.290;2023-04-24T13:17:03;7.15;;;1.83;;
64395;SDS011;50717;53.360;6.290;2023-04-24T13:19:34;4.38;;;1.73;;
64395;SDS011;50717;53.360;6.290;2023-04-24T13:22:01;4.20;;;1.38;;
64395;SDS011;50717;53.360;6.290;2023-04-24T13:24:27;6.47;;;1.35;;
64395;SDS011;50717;53.360;6.290;2023-04-24T13:26:52;5.63;;;1.50;;
64395;SDS011;50717;53.360;6.290;2023-04-24T13:29:18;5.72;;;1.48;;
64395;SDS011;50717;53.360;6.290;2023-04-24T13:34:15;6.28;;;1.92;;
64395;SDS011;50717;53.360;6.290;2023-04-24T13:36:41;9.32;;;2.10;;
64395;SDS011;50717;53.360;6.290;2023-04-24T13:39:07;6.65;;;2.10;;
64395;SDS011;50717;53.360;6.290;2023-04-24T13:41:32;3.92;;;1.58;;
64395;SDS011;50717;53.360;6.290;2023-04-24T13:43:59;4.07;;;1.77;;
64395;SDS011;50717;53.360;6.290;2023-04-24T13:46:24;7.80;;;2.22;;
64395;SDS011;50717;53.360;6.290;2023-04-24T13:48:50;7.38;;;1.80;;
64395;SDS011;50717;53.360;6.290;2023-04-24T13:51:17;26.67;;;2.85;;
64395;SDS011;50717;53.360;6.290;2023-04-24T13:53:43;11.32;;;2.60;;
64395;SDS011;50717;53.360;6.290;2023-04-24T13:56:08;8.95;;;2.53;;
64395;SDS011;50717;53.360;6.290;2023-04-24T13:58:34;9.57;;;2.35;;
64395;SDS011;50717;53.360;6.290;2023-04-24T14:01:02;12.20;;;3.13;;
64395;SDS011;50717;53.360;6.290;2023-04-24T14:03:28;4.97;;;2.30;;
64395;SDS011;50717;53.360;6.290;2023-04-24T14:05:54;5.68;;;2.58;;
64395;SDS011;50717;53.360;6.290;2023-04-24T14:08:20;7.60;;;2.60;;
64395;SDS011;50717;53.360;6.290;2023-04-24T14:10:45;10.32;;;3.22;;
64395;SDS011;50717;53.360;6.290;2023-04-24T14:13:11;14.38;;;4.10;;
64395;SDS011;50717;53.360;6.290;2023-04-24T14:15:37;13.50;;;4.00;;
64395;SDS011;50717;53.360;6.290;2023-04-24T14:18:03;13.25;;;3.38;;
64395;SDS011;50717;53.360;6.290;2023-04-24T14:22:55;10.40;;;3.35;;
64395;SDS011;50717;53.360;6.290;2023-04-24T14:25:24;12.73;;;5.13;;
64395;SDS011;50717;53.360;6.290;2023-04-24T14:27:50;16.50;;;4.40;;
64395;SDS011;50717;53.360;6.290;2023-04-24T14:30:15;14.43;;;3.67;;
64395;SDS011;50717;53.360;6.290;2023-04-24T14:32:41;17.42;;;4.72;;
64395;SDS011;50717;53.360;6.290;2023-04-24T14:35:07;10.80;;;4.43;;
64395;SDS011;50717;53.360;6.290;2023-04-24T14:37:33;16.73;;;4.32;;
64395;SDS011;50717;53.360;6.290;2023-04-24T14:39:59;12.43;;;4.47;;
64395;SDS011;50717;53.360;6.290;2023-04-24T14:42:24;22.15;;;4.53;;
64395;SDS011;50717;53.360;6.290;2023-04-24T14:44:50;15.82;;;5.25;;
64395;SDS011;50717;53.360;6.290;2023-04-24T14:47:16;15.93;;;5.10;;
64395;SDS011;50717;53.360;6.290;2023-04-24T14:49:42;21.17;;;6.07;;
64395;SDS011;50717;53.360;6.290;2023-04-24T14:54:34;19.38;;;5.55;;
64395;SDS011;50717;53.360;6.290;2023-04-24T14:57:00;17.70;;;5.93;;
64395;SDS011;50717;53.360;6.290;2023-04-24T14:59:27;20.80;;;5.18;;
64395;SDS011;50717;53.360;6.290;2023-04-24T15:01:53;15.20;;;4.53;;
64395;SDS011;50717;53.360;6.290;2023-04-24T15:04:23;19.35;;;5.13;;
64395;SDS011;50717;53.360;6.290;2023-04-24T15:06:51;19.15;;;5.47;;
64395;SDS011;50717;53.360;6.290;2023-04-24T15:09:18;16.80;;;4.35;;
64395;SDS011;50717;53.360;6.290;2023-04-24T15:11:45;16.05;;;4.50;;
64395;SDS011;50717;53.360;6.290;2023-04-24T15:14:11;13.88;;;4.82;;
64395;SDS011;50717;53.360;6.290;2023-04-24T15:16:36;18.63;;;5.00;;
64395;SDS011;50717;53.360;6.290;2023-04-24T15:19:02;14.45;;;4.63;;
64395;SDS011;50717;53.360;6.290;2023-04-24T15:21:28;14.85;;;5.22;;
64395;SDS011;50717;53.360;6.290;2023-04-24T15:23:54;16.83;;;4.88;;
64395;SDS011;50717;53.360;6.290;2023-04-24T15:26:20;13.88;;;3.40;;
64395;SDS011;50717;53.360;6.290;2023-04-24T15:31:12;10.93;;;3.78;;
64395;SDS011;50717;53.360;6.290;2023-04-24T15:33:38;7.55;;;4.18;;
64395;SDS011;50717;53.360;6.290;2023-04-24T15:36:04;13.40;;;3.83;;